createdAt,value
2023-05-15T00:01:43.788Z,15.25
2023-05-15T00:04:45.917Z,14.43
2023-05-15T00:07:47.870Z,16.00
2023-05-15T00:11:00.705Z,14.07
2023-05-15T00:14:03.715Z,15.18
2023-05-15T00:17:06.261Z,14.05
2023-05-15T00:20:10.174Z,14.93
2023-05-15T00:23:12.010Z,15.57
2023-05-15T00:26:15.898Z,15.38
2023-05-15T00:29:17.809Z,15.40
2023-05-15T00:32:19.555Z,18.10
2023-05-15T00:35:21.368Z,14.97
2023-05-15T00:38:23.211Z,15.70
2023-05-15T00:41:25.319Z,16.52
2023-05-15T00:44:27.201Z,15.52
2023-05-15T00:47:29.289Z,15.05
2023-05-15T00:50:31.433Z,16.90
2023-05-15T00:53:33.353Z,15.50
2023-05-15T00:56:35.243Z,16.38
2023-05-15T00:59:37.029Z,16.30
2023-05-15T01:02:38.955Z,16.77
2023-05-15T01:05:40.864Z,20.97
2023-05-15T01:08:44.224Z,15.57
2023-05-15T01:11:46.041Z,16.05
2023-05-15T01:14:47.906Z,15.43
2023-05-15T01:17:50.888Z,16.13
2023-05-15T01:21:02.252Z,16.30
2023-05-15T01:24:32.568Z,15.87
2023-05-15T01:27:34.344Z,16.13
2023-05-15T01:30:37.012Z,15.15
2023-05-15T01:33:39.974Z,14.45
2023-05-15T01:36:52.911Z,13.67
2023-05-15T01:40:03.288Z,15.57
2023-05-15T01:43:09.783Z,16.90
2023-05-15T01:46:15.701Z,14.70
2023-05-15T01:49:19.226Z,16.00
2023-05-15T01:52:25.621Z,14.17
2023-05-15T01:55:27.778Z,17.53
2023-05-15T01:58:29.672Z,17.33
2023-05-15T02:01:33.012Z,17.20
2023-05-15T02:04:35.190Z,17.55
2023-05-15T02:07:37.168Z,16.97
2023-05-15T02:10:39.303Z,19.83
2023-05-15T02:13:41.540Z,19.52
2023-05-15T02:16:43.784Z,19.63
2023-05-15T02:19:45.729Z,21.85
2023-05-15T02:22:47.563Z,26.37
2023-05-15T02:26:01.512Z,35.60
2023-05-15T02:29:37.409Z,39.67
2023-05-15T02:33:32.062Z,35.25
2023-05-15T02:36:34.178Z,42.08
2023-05-15T02:39:35.978Z,54.07
2023-05-15T02:42:37.760Z,54.83
2023-05-15T02:45:40.055Z,73.53
2023-05-15T02:48:42.185Z,79.40
2023-05-15T02:51:44.035Z,74.80
2023-05-15T02:54:48.648Z,59.53
2023-05-15T02:57:50.460Z,34.77
2023-05-15T03:00:52.361Z,35.47
2023-05-15T03:03:54.500Z,20.77
2023-05-15T03:06:56.311Z,14.35
2023-05-15T03:09:58.126Z,17.27
2023-05-15T03:13:00.162Z,13.50
2023-05-15T03:16:01.962Z,14.15
2023-05-15T03:19:04.102Z,15.57
2023-05-15T03:22:05.977Z,13.93
2023-05-15T03:25:11.624Z,14.63
2023-05-15T03:28:13.474Z,16.03
2023-05-15T03:31:15.406Z,14.32
2023-05-15T03:34:17.240Z,17.13
2023-05-15T03:37:19.128Z,15.30
2023-05-15T03:40:21.331Z,28.13
2023-05-15T03:43:23.149Z,23.80
2023-05-15T03:46:24.990Z,31.58
2023-05-15T03:49:26.833Z,29.67
2023-05-15T03:52:28.792Z,19.95
2023-05-15T03:55:30.616Z,21.50
2023-05-15T03:58:32.511Z,20.80
2023-05-15T04:01:39.314Z,18.55
2023-05-15T04:04:49.324Z,19.83
2023-05-15T04:07:51.185Z,18.15
2023-05-15T04:10:53.321Z,21.53
2023-05-15T04:13:55.078Z,21.57
2023-05-15T04:16:56.905Z,22.98
2023-05-15T04:19:58.660Z,18.85
2023-05-15T04:23:00.780Z,15.93
2023-05-15T04:26:02.766Z,14.17
2023-05-15T04:29:04.997Z,11.60
2023-05-15T04:32:07.371Z,11.95
2023-05-15T04:35:10.652Z,12.07
2023-05-15T04:38:12.534Z,13.25
2023-05-15T04:41:14.316Z,13.93
2023-05-15T04:44:16.143Z,12.47
2023-05-15T04:47:18.208Z,12.18
2023-05-15T04:50:20.181Z,12.18
2023-05-15T04:53:22.108Z,12.95
2023-05-15T04:56:23.953Z,12.87
2023-05-15T04:59:25.852Z,12.37
2023-05-15T05:02:27.858Z,13.52
2023-05-15T05:05:29.758Z,13.73
2023-05-15T05:08:31.651Z,13.05
2023-05-15T05:11:33.548Z,14.13
2023-05-15T05:14:35.426Z,11.93
2023-05-15T05:17:37.266Z,12.48
2023-05-15T05:20:39.285Z,13.63
2023-05-15T05:23:41.118Z,17.92
2023-05-15T05:26:46.088Z,13.80
2023-05-15T05:29:47.959Z,11.63
2023-05-15T05:32:49.968Z,12.63
2023-05-15T05:35:52.149Z,12.27
2023-05-15T05:38:54.061Z,13.10
2023-05-15T05:42:00.046Z,12.47
2023-05-15T05:45:02.020Z,13.17
2023-05-15T05:48:04.065Z,14.20
2023-05-15T05:51:06.078Z,12.13
2023-05-15T05:54:08.006Z,13.25
2023-05-15T05:57:09.931Z,14.20
2023-05-15T06:00:12.900Z,11.93
2023-05-15T06:03:18.084Z,12.38
2023-05-15T06:06:19.917Z,13.05
2023-05-15T06:09:21.756Z,12.80
2023-05-15T06:12:28.125Z,12.33
2023-05-15T06:15:30.042Z,13.07
2023-05-15T06:18:31.925Z,12.85
2023-05-15T06:21:34.334Z,12.80
2023-05-15T06:24:36.222Z,12.30
2023-05-15T06:27:38.082Z,12.17
2023-05-15T06:30:40.031Z,12.70
2023-05-15T06:33:41.926Z,13.52
2023-05-15T06:36:43.871Z,11.75
2023-05-15T06:39:48.614Z,13.70
2023-05-15T06:42:50.796Z,12.43
2023-05-15T06:45:52.626Z,10.43
2023-05-15T06:48:57.589Z,11.10
2023-05-15T06:51:59.449Z,10.55
2023-05-15T06:55:01.513Z,11.48
2023-05-15T06:58:03.431Z,10.07
2023-05-15T07:01:06.795Z,9.90
2023-05-15T07:04:08.911Z,8.60
2023-05-15T07:07:10.892Z,9.50
2023-05-15T07:10:12.742Z,8.55
2023-05-15T07:13:14.615Z,8.67
2023-05-15T07:16:16.512Z,8.03
2023-05-15T07:19:21.186Z,10.02
2023-05-15T07:22:23.167Z,6.90
2023-05-15T07:25:26.018Z,8.10
2023-05-15T07:28:32.082Z,8.33
2023-05-15T07:31:34.059Z,16.87
2023-05-15T07:34:35.927Z,10.73
2023-05-15T07:37:38.531Z,8.75
2023-05-15T07:40:40.484Z,9.07
2023-05-15T07:43:46.101Z,7.50
2023-05-15T07:46:48.146Z,8.47
2023-05-15T07:49:49.978Z,7.22
2023-05-15T07:52:51.786Z,7.47
2023-05-15T07:55:53.760Z,7.82
2023-05-15T07:58:58.501Z,7.43
2023-05-15T08:02:00.392Z,6.73
2023-05-15T08:05:02.307Z,5.90
2023-05-15T08:08:04.230Z,6.00
2023-05-15T08:11:06.224Z,5.68
2023-05-15T08:14:08.321Z,5.03
2023-05-15T08:17:10.232Z,6.17
2023-05-15T08:20:12.625Z,5.57
2023-05-15T08:23:14.520Z,6.00
2023-05-15T08:26:16.381Z,5.47
2023-05-15T08:29:18.228Z,5.70
2023-05-15T08:32:20.446Z,5.80
2023-05-15T08:35:22.350Z,5.60
2023-05-15T08:38:24.463Z,5.25
2023-05-15T08:41:40.422Z,5.45
2023-05-15T08:44:46.061Z,5.10
2023-05-15T08:47:48.065Z,8.47
2023-05-15T08:50:50.083Z,5.57
2023-05-15T08:53:52.041Z,4.65
2023-05-15T08:56:54.072Z,4.32
2023-05-15T09:00:00.994Z,4.50
2023-05-15T09:03:03.305Z,2.73
2023-05-15T09:06:05.695Z,3.35
2023-05-15T09:09:07.653Z,4.28
2023-05-15T09:12:13.299Z,3.38
2023-05-15T09:15:22.678Z,3.90
2023-05-15T09:18:24.975Z,4.07
2023-05-15T09:21:30.862Z,4.32
2023-05-15T09:24:38.683Z,4.55
2023-05-15T09:27:43.727Z,4.55
2023-05-15T09:30:45.586Z,4.03
2023-05-15T09:33:47.483Z,8.57
2023-05-15T09:36:49.471Z,3.90
2023-05-15T09:39:51.446Z,6.60
2023-05-15T09:42:56.292Z,4.30
2023-05-15T09:45:58.406Z,5.17
2023-05-15T09:49:00.342Z,6.33
2023-05-15T09:52:02.098Z,3.40
2023-05-15T09:55:04.432Z,3.72
2023-05-15T09:58:18.772Z,4.38
2023-05-15T10:01:21.741Z,3.93
2023-05-15T10:04:23.632Z,3.77
2023-05-15T10:07:43.411Z,4.05
2023-05-15T10:10:46.988Z,4.38
2023-05-15T10:13:48.955Z,4.43
2023-05-15T10:16:51.450Z,3.60
2023-05-15T10:19:58.370Z,3.97
2023-05-15T10:23:00.952Z,3.60
2023-05-15T10:26:04.643Z,5.20
2023-05-15T10:29:08.535Z,3.72
2023-05-15T10:32:10.479Z,4.63
2023-05-15T10:35:12.430Z,3.93
2023-05-15T10:38:14.439Z,3.38
2023-05-15T10:41:18.223Z,3.47
2023-05-15T10:44:20.503Z,3.50
2023-05-15T10:47:22.571Z,3.43
2023-05-15T10:50:24.795Z,7.77
2023-05-15T10:53:26.766Z,5.00
2023-05-15T10:56:35.591Z,4.13
2023-05-15T10:59:42.616Z,3.22
2023-05-15T11:02:44.627Z,3.03
2023-05-15T11:06:10.071Z,3.40
2023-05-15T11:09:38.695Z,4.13
2023-05-15T11:13:10.057Z,5.85
2023-05-15T11:16:13.517Z,4.63
2023-05-15T11:19:25.604Z,5.17
2023-05-15T11:22:36.305Z,3.70
2023-05-15T11:25:38.675Z,3.67
2023-05-15T11:28:44.216Z,5.60
2023-05-15T11:31:46.028Z,5.20
2023-05-15T11:34:48.019Z,4.77
2023-05-15T11:38:00.523Z,21.40
2023-05-15T11:41:05.693Z,36.90
2023-05-15T11:44:08.101Z,20.15
2023-05-15T11:47:11.146Z,11.43
2023-05-15T11:50:12.953Z,6.37
2023-05-15T11:53:15.116Z,6.17
2023-05-15T11:56:24.782Z,6.60
2023-05-15T11:59:27.094Z,6.93
2023-05-15T12:02:29.386Z,3.75
2023-05-15T12:05:32.107Z,3.53
2023-05-15T12:08:35.264Z,3.17
2023-05-15T12:11:37.277Z,3.15
2023-05-15T12:14:39.720Z,3.47
2023-05-15T12:17:41.883Z,2.55
2023-05-15T12:20:47.137Z,3.60
2023-05-15T12:24:06.330Z,5.03
2023-05-15T12:27:09.414Z,9.18
2023-05-15T12:30:11.671Z,3.45
2023-05-15T12:33:13.628Z,4.15
2023-05-15T12:36:15.737Z,4.73
2023-05-15T12:39:17.773Z,2.80
2023-05-15T12:42:19.829Z,39.75
2023-05-15T12:45:22.436Z,23.30
2023-05-15T12:48:32.766Z,9.82
2023-05-15T12:51:34.661Z,5.43
2023-05-15T12:54:41.181Z,5.13
2023-05-15T12:57:43.161Z,14.25
2023-05-15T13:00:46.910Z,7.38
2023-05-15T13:03:48.870Z,5.85
2023-05-15T13:06:51.027Z,4.33
2023-05-15T13:10:08.584Z,4.33
2023-05-15T13:13:10.718Z,10.50
2023-05-15T13:16:19.729Z,5.90
2023-05-15T13:19:21.610Z,4.15
2023-05-15T13:22:23.539Z,22.23
2023-05-15T13:25:25.907Z,9.67
2023-05-15T13:28:27.792Z,4.32
2023-05-15T13:31:29.944Z,4.10
2023-05-15T13:34:35.177Z,4.10
2023-05-15T13:37:37.628Z,8.87
2023-05-15T13:40:39.676Z,2.30
2023-05-15T13:43:41.474Z,2.70
2023-05-15T13:46:44.143Z,2.95
2023-05-15T13:49:46.397Z,2.80
2023-05-15T13:52:48.422Z,3.73
2023-05-15T13:55:51.813Z,2.67
2023-05-15T13:58:55.123Z,2.95
2023-05-15T14:01:56.979Z,3.00
2023-05-15T14:05:03.325Z,2.42
2023-05-15T14:08:05.533Z,3.13
2023-05-15T14:11:07.579Z,3.93
2023-05-15T14:14:09.364Z,3.10
2023-05-15T14:17:11.211Z,2.97
2023-05-15T14:20:13.157Z,3.35
2023-05-15T14:23:15.714Z,2.37
2023-05-15T14:26:17.482Z,3.93
2023-05-15T14:29:19.287Z,3.53
2023-05-15T14:32:21.215Z,3.10
2023-05-15T14:35:23.226Z,2.22
2023-05-15T14:38:24.979Z,1.97
2023-05-15T14:41:28.103Z,2.17
2023-05-15T14:44:29.940Z,2.83
2023-05-15T14:47:32.040Z,2.03
2023-05-15T14:50:33.890Z,2.58
2023-05-15T14:53:35.790Z,2.97
2023-05-15T14:56:37.571Z,1.97
2023-05-15T14:59:39.515Z,2.30
2023-05-15T15:02:41.667Z,2.53
2023-05-15T15:05:43.523Z,7.95
2023-05-15T15:08:45.396Z,3.47
2023-05-15T15:11:47.530Z,2.67
2023-05-15T15:14:49.352Z,2.58
2023-05-15T15:17:51.955Z,2.15
2023-05-15T15:20:53.768Z,1.83
2023-05-15T15:23:56.545Z,2.73
2023-05-15T15:26:58.330Z,2.30
2023-05-15T15:30:00.219Z,3.13
2023-05-15T15:33:02.255Z,4.22
2023-05-15T15:36:04.428Z,2.97
2023-05-15T15:39:06.442Z,3.23
2023-05-15T15:42:08.310Z,3.43
2023-05-15T15:45:10.218Z,2.65
2023-05-15T15:48:12.135Z,2.63
2023-05-15T15:51:14.192Z,3.63
2023-05-15T15:54:16.217Z,3.10
2023-05-15T15:57:18.299Z,3.20
2023-05-15T16:00:20.373Z,3.08
2023-05-15T16:03:22.291Z,2.97
2023-05-15T16:06:24.258Z,1.92
2023-05-15T16:09:26.049Z,3.50
2023-05-15T16:12:28.170Z,3.23
2023-05-15T16:15:29.978Z,2.58
2023-05-15T16:18:31.971Z,3.15
2023-05-15T16:21:36.403Z,4.32
2023-05-15T16:24:38.425Z,4.47
2023-05-15T16:27:40.307Z,2.97
2023-05-15T16:30:48.959Z,3.20
2023-05-15T16:33:52.322Z,3.78
2023-05-15T16:36:54.215Z,4.07
2023-05-15T16:39:56.030Z,4.77
2023-05-15T16:42:58.104Z,6.67
2023-05-15T16:46:00.099Z,5.60
2023-05-15T16:49:02.007Z,4.75
2023-05-15T16:52:04.118Z,4.15
2023-05-15T16:55:06.668Z,4.30
2023-05-15T16:58:08.925Z,5.50
2023-05-15T17:01:10.847Z,4.80
2023-05-15T17:04:12.809Z,4.40
2023-05-15T17:07:14.783Z,5.15
2023-05-15T17:10:16.750Z,5.80
2023-05-15T17:13:18.613Z,4.50
2023-05-15T17:16:20.400Z,4.63
2023-05-15T17:19:22.376Z,3.90
2023-05-15T17:22:24.327Z,4.30
2023-05-15T17:25:26.375Z,4.13
2023-05-15T17:28:28.404Z,4.20
2023-05-15T17:31:30.447Z,4.80
2023-05-15T17:34:32.317Z,4.03
2023-05-15T17:37:34.219Z,14.32
2023-05-15T17:40:36.039Z,5.37
2023-05-15T17:43:38.100Z,5.87
2023-05-15T17:46:39.949Z,4.78
2023-05-15T17:49:41.900Z,4.93
2023-05-15T17:52:43.769Z,4.35
2023-05-15T17:55:45.861Z,5.40
2023-05-15T17:58:47.721Z,5.57
2023-05-15T18:01:49.692Z,5.00
2023-05-15T18:04:51.636Z,5.13
2023-05-15T18:07:56.369Z,5.07
2023-05-15T18:10:58.178Z,5.50
2023-05-15T18:14:00.066Z,11.17
2023-05-15T18:17:01.896Z,9.13
2023-05-15T18:20:05.811Z,6.47
2023-05-15T18:23:07.717Z,5.40
2023-05-15T18:26:10.425Z,5.50
2023-05-15T18:29:12.789Z,5.03
2023-05-15T18:32:14.699Z,7.47
2023-05-15T18:35:17.344Z,5.68
2023-05-15T18:38:19.157Z,6.85
2023-05-15T18:41:21.540Z,7.97
2023-05-15T18:44:23.490Z,7.37
2023-05-15T18:47:25.567Z,8.63
2023-05-15T18:50:27.428Z,8.55
2023-05-15T18:53:29.273Z,8.85
2023-05-15T18:56:31.488Z,7.80
2023-05-15T18:59:33.477Z,8.17
2023-05-15T19:02:36.391Z,7.53
2023-05-15T19:05:38.269Z,8.18
2023-05-15T19:08:43.142Z,7.75
2023-05-15T19:11:46.897Z,6.47
2023-05-15T19:14:48.776Z,7.73
2023-05-15T19:17:50.910Z,9.90
2023-05-15T19:20:54.354Z,9.38
2023-05-15T19:23:56.227Z,9.90
2023-05-15T19:26:58.091Z,8.70
2023-05-15T19:29:59.937Z,7.53
2023-05-15T19:33:01.778Z,7.85
2023-05-15T19:36:03.806Z,8.63
2023-05-15T19:39:05.563Z,7.90
2023-05-15T19:42:07.435Z,7.87
2023-05-15T19:45:09.707Z,10.90
2023-05-15T19:48:11.967Z,9.40
2023-05-15T19:51:13.935Z,8.30
2023-05-15T19:54:16.786Z,8.98
2023-05-15T19:57:18.544Z,8.50
2023-05-15T20:00:20.624Z,9.03
2023-05-15T20:03:22.681Z,10.48
2023-05-15T20:06:24.760Z,10.23
2023-05-15T20:09:26.625Z,9.25
2023-05-15T20:12:28.467Z,8.27
2023-05-15T20:15:31.786Z,7.70
2023-05-15T20:18:34.919Z,8.30
2023-05-15T20:21:37.663Z,9.32
2023-05-15T20:24:40.174Z,9.90
2023-05-15T20:27:45.364Z,7.60
2023-05-15T20:30:47.592Z,8.60
2023-05-15T20:33:49.321Z,8.07
2023-05-15T20:36:54.615Z,9.40
2023-05-15T20:39:57.291Z,9.95
2023-05-15T20:42:59.548Z,9.57
2023-05-15T20:46:01.382Z,10.27
2023-05-15T20:49:03.142Z,9.38
2023-05-15T20:52:05.171Z,12.48
2023-05-15T20:55:15.988Z,10.60
2023-05-15T20:58:17.795Z,8.37
2023-05-15T21:01:19.710Z,10.10
2023-05-15T21:04:21.575Z,9.35
2023-05-15T21:07:23.385Z,8.63
2023-05-15T21:10:25.880Z,8.45
2023-05-15T21:13:28.259Z,12.80
2023-05-15T21:16:30.089Z,13.03
2023-05-15T21:19:32.085Z,14.05
2023-05-15T21:22:34.402Z,14.32
2023-05-15T21:25:37.013Z,13.90
2023-05-15T21:28:38.811Z,9.33
2023-05-15T21:31:40.713Z,9.10
2023-05-15T21:34:42.878Z,9.57
2023-05-15T21:37:44.717Z,9.63
2023-05-15T21:40:46.565Z,9.25
2023-05-15T21:43:48.344Z,10.80
2023-05-15T21:46:50.996Z,18.70
2023-05-15T21:49:52.929Z,19.08
2023-05-15T21:52:54.780Z,21.52
2023-05-15T21:56:00.425Z,18.02
2023-05-15T21:59:02.795Z,14.30
2023-05-15T22:02:04.917Z,9.80
2023-05-15T22:05:07.040Z,9.85
2023-05-15T22:08:08.926Z,9.85
2023-05-15T22:11:10.700Z,8.40
2023-05-15T22:14:12.723Z,11.10
2023-05-15T22:17:14.508Z,7.50
2023-05-15T22:20:19.178Z,9.40
2023-05-15T22:23:21.146Z,8.30
2023-05-15T22:26:23.439Z,8.32
2023-05-15T22:29:25.299Z,7.27
2023-05-15T22:32:27.265Z,8.77
2023-05-15T22:35:29.503Z,7.38
2023-05-15T22:38:31.614Z,7.82
2023-05-15T22:41:33.340Z,8.10
2023-05-15T22:44:35.121Z,9.47
2023-05-15T22:47:36.985Z,7.77
2023-05-15T22:50:38.874Z,10.23
2023-05-15T22:53:41.453Z,8.95
2023-05-15T22:56:43.233Z,8.93
2023-05-15T22:59:45.086Z,7.93
2023-05-15T23:02:46.921Z,8.90
2023-05-15T23:05:48.830Z,8.13
2023-05-15T23:08:51.450Z,8.05
2023-05-15T23:11:53.526Z,8.05
2023-05-15T23:14:55.308Z,8.87
2023-05-15T23:17:57.817Z,6.33
2023-05-15T23:20:59.670Z,8.18
2023-05-15T23:24:10.612Z,8.27
2023-05-15T23:27:13.133Z,8.05
2023-05-15T23:30:15.433Z,8.93
2023-05-15T23:33:17.402Z,8.87
2023-05-15T23:36:19.158Z,7.70
2023-05-15T23:39:21.027Z,7.97
2023-05-15T23:42:23.380Z,8.18
2023-05-15T23:45:25.146Z,7.50
2023-05-15T23:48:27.086Z,7.83
2023-05-15T23:51:28.925Z,8.50
2023-05-15T23:54:31.174Z,8.40
2023-05-15T23:57:32.888Z,8.32
